sensor_id;sensor_type;location;lat;lon;timestamp;temperature;humidity
20370;DHT22;10344;47.592;9.600;2022-09-09T00:05:22;15.60;99.90
20370;DHT22;10344;47.592;9.600;2022-09-09T00:07:55;15.60;99.90
20370;DHT22;10344;47.592;9.600;2022-09-09T00:10:54;15.60;99.90
20370;DHT22;10344;47.592;9.600;2022-09-09T00:13:48;15.60;99.90
20370;DHT22;10344;47.592;9.600;2022-09-09T00:16:30;15.60;99.90
20370;DHT22;10344;47.592;9.600;2022-09-09T00:19:29;15.60;99.90
20370;DHT22;10344;47.592;9.600;2022-09-09T00:24:51;15.60;99.90
20370;DHT22;10344;47.592;9.600;2022-09-09T00:27:45;15.60;99.90
20370;DHT22;10344;47.592;9.600;2022-09-09T00:30:35;15.60;99.90
20370;DHT22;10344;47.592;9.600;2022-09-09T00:33:11;15.60;99.90
20370;DHT22;10344;47.592;9.600;2022-09-09T00:36:01;15.60;99.90
20370;DHT22;10344;47.592;9.600;2022-09-09T00:47:01;15.70;99.90
20370;DHT22;10344;47.592;9.600;2022-09-09T00:50:21;15.70;99.90
20370;DHT22;10344;47.592;9.600;2022-09-09T00:52:51;15.70;99.90
20370;DHT22;10344;47.592;9.600;2022-09-09T00:58:17;15.60;99.90
20370;DHT22;10344;47.592;9.600;2022-09-09T01:00:51;15.50;99.90
20370;DHT22;10344;47.592;9.600;2022-09-09T01:03:47;15.50;99.90
20370;DHT22;10344;47.592;9.600;2022-09-09T01:06:32;15.40;99.90
20370;DHT22;10344;47.592;9.600;2022-09-09T01:09:25;15.40;99.90
20370;DHT22;10344;47.592;9.600;2022-09-09T01:14:53;15.40;99.90
20370;DHT22;10344;47.592;9.600;2022-09-09T01:17:31;15.40;99.90
20370;DHT22;10344;47.592;9.600;2022-09-09T01:20:20;15.40;99.90
20370;DHT22;10344;47.592;9.600;2022-09-09T01:26:21;15.40;99.90
20370;DHT22;10344;47.592;9.600;2022-09-09T01:28:51;15.40;99.90
20370;DHT22;10344;47.592;9.600;2022-09-09T01:31:31;15.40;99.90
20370;DHT22;10344;47.592;9.600;2022-09-09T01:34:01;15.40;99.90
20370;DHT22;10344;47.592;9.600;2022-09-09T01:36:49;15.40;99.90
20370;DHT22;10344;47.592;9.600;2022-09-09T01:39:21;15.40;99.90
20370;DHT22;10344;47.592;9.600;2022-09-09T01:42:03;15.40;99.90
20370;DHT22;10344;47.592;9.600;2022-09-09T01:44:42;15.40;99.90
20370;DHT22;10344;47.592;9.600;2022-09-09T01:47:10;15.30;99.90
20370;DHT22;10344;47.592;9.600;2022-09-09T01:49:41;15.30;99.90
20370;DHT22;10344;47.592;9.600;2022-09-09T01:52:08;15.30;99.90
20370;DHT22;10344;47.592;9.600;2022-09-09T01:54:35;15.30;99.90
20370;DHT22;10344;47.592;9.600;2022-09-09T02:08:49;15.20;99.90
20370;DHT22;10344;47.592;9.600;2022-09-09T02:11:18;15.10;99.90
20370;DHT22;10344;47.592;9.600;2022-09-09T02:13:48;15.10;99.90
20370;DHT22;10344;47.592;9.600;2022-09-09T02:16:40;15.20;99.90
20370;DHT22;10344;47.592;9.600;2022-09-09T02:19:25;15.10;99.90
20370;DHT22;10344;47.592;9.600;2022-09-09T02:22:22;15.10;99.90
20370;DHT22;10344;47.592;9.600;2022-09-09T02:25:00;15.00;99.90
20370;DHT22;10344;47.592;9.600;2022-09-09T02:27:29;14.90;99.90
20370;DHT22;10344;47.592;9.600;2022-09-09T02:30:04;14.90;99.90
20370;DHT22;10344;47.592;9.600;2022-09-09T02:32:35;14.80;99.90
20370;DHT22;10344;47.592;9.600;2022-09-09T02:35:09;14.80;99.90
20370;DHT22;10344;47.592;9.600;2022-09-09T02:37:42;14.80;99.90
20370;DHT22;10344;47.592;9.600;2022-09-09T02:40:14;14.70;99.90
20370;DHT22;10344;47.592;9.600;2022-09-09T02:42:47;14.70;99.90
20370;DHT22;10344;47.592;9.600;2022-09-09T02:49:09;14.70;99.90
20370;DHT22;10344;47.592;9.600;2022-09-09T02:52:07;14.70;99.90
20370;DHT22;10344;47.592;9.600;2022-09-09T02:54:47;14.70;99.90
20370;DHT22;10344;47.592;9.600;2022-09-09T02:57:33;14.70;99.90
20370;DHT22;10344;47.592;9.600;2022-09-09T03:00:13;14.80;99.90
20370;DHT22;10344;47.592;9.600;2022-09-09T03:03:20;14.80;99.90
20370;DHT22;10344;47.592;9.600;2022-09-09T03:06:37;14.80;99.90
20370;DHT22;10344;47.592;9.600;2022-09-09T03:09:23;14.90;99.90
20370;DHT22;10344;47.592;9.600;2022-09-09T03:11:54;14.90;99.90
20370;DHT22;10344;47.592;9.600;2022-09-09T03:14:26;14.90;99.90
20370;DHT22;10344;47.592;9.600;2022-09-09T03:17:02;14.90;99.90
20370;DHT22;10344;47.592;9.600;2022-09-09T03:19:50;14.90;99.90
20370;DHT22;10344;47.592;9.600;2022-09-09T03:22:24;14.80;99.90
20370;DHT22;10344;47.592;9.600;2022-09-09T03:25:10;14.80;99.90
20370;DHT22;10344;47.592;9.600;2022-09-09T03:27:48;14.80;99.90
20370;DHT22;10344;47.592;9.600;2022-09-09T03:30:17;14.80;99.90
20370;DHT22;10344;47.592;9.600;2022-09-09T03:32:44;14.80;99.90
20370;DHT22;10344;47.592;9.600;2022-09-09T03:35:09;14.80;99.90
20370;DHT22;10344;47.592;9.600;2022-09-09T03:37:39;14.80;99.90
20370;DHT22;10344;47.592;9.600;2022-09-09T03:40:11;14.80;99.90
20370;DHT22;10344;47.592;9.600;2022-09-09T03:42:39;14.80;99.90
20370;DHT22;10344;47.592;9.600;2022-09-09T03:45:11;14.80;99.90
20370;DHT22;10344;47.592;9.600;2022-09-09T03:47:42;14.90;99.90
20370;DHT22;10344;47.592;9.600;2022-09-09T03:50:25;14.90;99.90
20370;DHT22;10344;47.592;9.600;2022-09-09T03:53:03;15.00;99.90
20370;DHT22;10344;47.592;9.600;2022-09-09T03:55:54;15.00;99.90
20370;DHT22;10344;47.592;9.600;2022-09-09T03:58:21;15.10;99.90
20370;DHT22;10344;47.592;9.600;2022-09-09T04:00:56;15.10;99.90
20370;DHT22;10344;47.592;9.600;2022-09-09T04:03:28;15.10;99.90
20370;DHT22;10344;47.592;9.600;2022-09-09T04:06:06;15.20;99.90
20370;DHT22;10344;47.592;9.600;2022-09-09T04:08:39;15.20;99.90
20370;DHT22;10344;47.592;9.600;2022-09-09T04:11:27;15.20;99.90
20370;DHT22;10344;47.592;9.600;2022-09-09T04:13:54;15.20;99.90
20370;DHT22;10344;47.592;9.600;2022-09-09T04:16:24;15.30;99.90
20370;DHT22;10344;47.592;9.600;2022-09-09T04:18:55;15.30;99.90
20370;DHT22;10344;47.592;9.600;2022-09-09T04:21:28;15.30;99.90
20370;DHT22;10344;47.592;9.600;2022-09-09T04:23:54;15.40;99.90
20370;DHT22;10344;47.592;9.600;2022-09-09T04:26:22;15.30;99.90
20370;DHT22;10344;47.592;9.600;2022-09-09T04:28:54;15.30;99.90
20370;DHT22;10344;47.592;9.600;2022-09-09T04:31:23;15.30;99.90
20370;DHT22;10344;47.592;9.600;2022-09-09T04:34:09;15.40;99.90
20370;DHT22;10344;47.592;9.600;2022-09-09T04:36:35;15.40;99.90
20370;DHT22;10344;47.592;9.600;2022-09-09T04:39:03;15.40;99.90
20370;DHT22;10344;47.592;9.600;2022-09-09T04:41:29;15.50;99.90
20370;DHT22;10344;47.592;9.600;2022-09-09T04:44:02;15.50;99.90
20370;DHT22;10344;47.592;9.600;2022-09-09T04:46:30;15.50;99.90
20370;DHT22;10344;47.592;9.600;2022-09-09T04:48:56;15.50;99.90
20370;DHT22;10344;47.592;9.600;2022-09-09T04:51:32;15.50;99.90
20370;DHT22;10344;47.592;9.600;2022-09-09T04:53:59;15.50;99.90
20370;DHT22;10344;47.592;9.600;2022-09-09T04:56:24;15.50;99.90
20370;DHT22;10344;47.592;9.600;2022-09-09T04:58:57;15.50;99.90
20370;DHT22;10344;47.592;9.600;2022-09-09T05:01:27;15.50;99.90
20370;DHT22;10344;47.592;9.600;2022-09-09T05:03:54;15.50;99.90
20370;DHT22;10344;47.592;9.600;2022-09-09T05:06:21;15.50;99.90
20370;DHT22;10344;47.592;9.600;2022-09-09T05:08:48;15.50;99.90
20370;DHT22;10344;47.592;9.600;2022-09-09T05:11:19;15.50;99.90
20370;DHT22;10344;47.592;9.600;2022-09-09T05:13:50;15.50;99.90
20370;DHT22;10344;47.592;9.600;2022-09-09T05:16:17;15.50;99.90
20370;DHT22;10344;47.592;9.600;2022-09-09T05:18:43;15.60;99.90
20370;DHT22;10344;47.592;9.600;2022-09-09T05:21:13;15.60;99.90
20370;DHT22;10344;47.592;9.600;2022-09-09T05:23:39;15.60;99.90
20370;DHT22;10344;47.592;9.600;2022-09-09T05:26:23;15.60;99.90
20370;DHT22;10344;47.592;9.600;2022-09-09T05:28:49;15.60;99.90
20370;DHT22;10344;47.592;9.600;2022-09-09T05:31:16;15.60;99.90
20370;DHT22;10344;47.592;9.600;2022-09-09T05:33:47;15.70;99.90
20370;DHT22;10344;47.592;9.600;2022-09-09T05:36:20;15.70;99.90
20370;DHT22;10344;47.592;9.600;2022-09-09T05:38:52;15.70;99.90
20370;DHT22;10344;47.592;9.600;2022-09-09T05:41:19;15.80;99.90
20370;DHT22;10344;47.592;9.600;2022-09-09T05:43:48;15.70;99.90
20370;DHT22;10344;47.592;9.600;2022-09-09T05:46:23;15.70;99.90
20370;DHT22;10344;47.592;9.600;2022-09-09T05:48:51;15.70;99.90
20370;DHT22;10344;47.592;9.600;2022-09-09T05:51:20;15.80;99.90
20370;DHT22;10344;47.592;9.600;2022-09-09T05:53:50;15.80;99.90
20370;DHT22;10344;47.592;9.600;2022-09-09T05:56:24;15.80;99.90
20370;DHT22;10344;47.592;9.600;2022-09-09T05:58:51;15.80;99.90
20370;DHT22;10344;47.592;9.600;2022-09-09T06:01:23;15.90;99.90
20370;DHT22;10344;47.592;9.600;2022-09-09T06:03:50;15.90;99.90
20370;DHT22;10344;47.592;9.600;2022-09-09T06:06:19;15.90;99.90
20370;DHT22;10344;47.592;9.600;2022-09-09T06:08:46;15.90;99.90
20370;DHT22;10344;47.592;9.600;2022-09-09T06:11:24;16.00;99.90
20370;DHT22;10344;47.592;9.600;2022-09-09T06:13:50;16.00;99.90
20370;DHT22;10344;47.592;9.600;2022-09-09T06:16:20;16.10;99.90
20370;DHT22;10344;47.592;9.600;2022-09-09T06:18:51;16.10;99.90
20370;DHT22;10344;47.592;9.600;2022-09-09T06:21:24;16.20;99.90
20370;DHT22;10344;47.592;9.600;2022-09-09T06:23:56;16.20;99.90
20370;DHT22;10344;47.592;9.600;2022-09-09T06:26:24;16.20;99.90
20370;DHT22;10344;47.592;9.600;2022-09-09T06:28:52;16.30;99.90
20370;DHT22;10344;47.592;9.600;2022-09-09T06:31:25;16.30;99.90
20370;DHT22;10344;47.592;9.600;2022-09-09T06:33:53;16.30;99.90
20370;DHT22;10344;47.592;9.600;2022-09-09T06:36:21;16.40;99.90
20370;DHT22;10344;47.592;9.600;2022-09-09T06:38:48;16.40;99.90
20370;DHT22;10344;47.592;9.600;2022-09-09T06:41:15;16.50;99.90
20370;DHT22;10344;47.592;9.600;2022-09-09T06:43:41;16.40;99.90
20370;DHT22;10344;47.592;9.600;2022-09-09T06:48:36;16.40;99.90
20370;DHT22;10344;47.592;9.600;2022-09-09T06:51:03;16.40;99.90
20370;DHT22;10344;47.592;9.600;2022-09-09T06:53:28;16.40;99.90
20370;DHT22;10344;47.592;9.600;2022-09-09T06:55:59;16.40;99.90
20370;DHT22;10344;47.592;9.600;2022-09-09T06:58:29;16.40;99.90
20370;DHT22;10344;47.592;9.600;2022-09-09T07:01:05;16.40;99.90
20370;DHT22;10344;47.592;9.600;2022-09-09T07:03:31;16.40;99.90
20370;DHT22;10344;47.592;9.600;2022-09-09T07:05:57;16.40;99.90
20370;DHT22;10344;47.592;9.600;2022-09-09T07:08:26;16.40;99.90
20370;DHT22;10344;47.592;9.600;2022-09-09T07:10:52;16.50;99.90
20370;DHT22;10344;47.592;9.600;2022-09-09T07:13:26;16.50;99.90
20370;DHT22;10344;47.592;9.600;2022-09-09T07:15:52;16.60;99.90
20370;DHT22;10344;47.592;9.600;2022-09-09T07:18:19;16.60;99.90
20370;DHT22;10344;47.592;9.600;2022-09-09T07:20:55;16.60;99.90
20370;DHT22;10344;47.592;9.600;2022-09-09T07:23:21;16.70;99.90
20370;DHT22;10344;47.592;9.600;2022-09-09T07:25:47;16.70;99.90
20370;DHT22;10344;47.592;9.600;2022-09-09T07:28:13;16.70;99.90
20370;DHT22;10344;47.592;9.600;2022-09-09T07:30:39;16.90;99.90
20370;DHT22;10344;47.592;9.600;2022-09-09T07:33:08;17.00;99.90
20370;DHT22;10344;47.592;9.600;2022-09-09T07:35:35;17.10;99.90
20370;DHT22;10344;47.592;9.600;2022-09-09T07:38:04;17.20;99.90
20370;DHT22;10344;47.592;9.600;2022-09-09T07:40:35;17.20;99.90
20370;DHT22;10344;47.592;9.600;2022-09-09T07:43:01;17.30;99.90
20370;DHT22;10344;47.592;9.600;2022-09-09T07:45:27;17.30;99.90
20370;DHT22;10344;47.592;9.600;2022-09-09T07:47:58;17.40;99.90
20370;DHT22;10344;47.592;9.600;2022-09-09T07:50:24;17.30;99.90
20370;DHT22;10344;47.592;9.600;2022-09-09T07:52:53;17.30;99.90
20370;DHT22;10344;47.592;9.600;2022-09-09T07:55:19;17.30;99.90
20370;DHT22;10344;47.592;9.600;2022-09-09T07:57:45;17.30;99.90
20370;DHT22;10344;47.592;9.600;2022-09-09T08:00:12;17.30;99.90
20370;DHT22;10344;47.592;9.600;2022-09-09T08:02:38;17.20;99.90
20370;DHT22;10344;47.592;9.600;2022-09-09T08:05:04;17.30;99.90
20370;DHT22;10344;47.592;9.600;2022-09-09T08:07:31;17.30;99.90
20370;DHT22;10344;47.592;9.600;2022-09-09T08:09:57;17.40;99.90
20370;DHT22;10344;47.592;9.600;2022-09-09T08:12:23;17.30;99.90
20370;DHT22;10344;47.592;9.600;2022-09-09T08:14:48;17.30;99.90
20370;DHT22;10344;47.592;9.600;2022-09-09T08:17:14;17.20;99.90
20370;DHT22;10344;47.592;9.600;2022-09-09T08:19:42;17.20;99.90
20370;DHT22;10344;47.592;9.600;2022-09-09T08:22:09;17.20;99.90
20370;DHT22;10344;47.592;9.600;2022-09-09T08:24:35;17.30;99.90
20370;DHT22;10344;47.592;9.600;2022-09-09T08:27:03;17.30;99.90
20370;DHT22;10344;47.592;9.600;2022-09-09T08:29:31;17.30;99.90
20370;DHT22;10344;47.592;9.600;2022-09-09T08:31:58;17.30;99.90
20370;DHT22;10344;47.592;9.600;2022-09-09T08:34:27;17.20;99.90
20370;DHT22;10344;47.592;9.600;2022-09-09T08:36:54;17.20;99.90
20370;DHT22;10344;47.592;9.600;2022-09-09T08:39:21;17.10;99.90
20370;DHT22;10344;47.592;9.600;2022-09-09T08:50:41;17.20;99.90
20370;DHT22;10344;47.592;9.600;2022-09-09T08:53:21;17.20;99.90
20370;DHT22;10344;47.592;9.600;2022-09-09T08:55:49;17.30;99.90
20370;DHT22;10344;47.592;9.600;2022-09-09T09:06:50;17.50;99.90
20370;DHT22;10344;47.592;9.600;2022-09-09T09:12:18;17.70;99.90
20370;DHT22;10344;47.592;9.600;2022-09-09T09:14:46;17.80;99.90
20370;DHT22;10344;47.592;9.600;2022-09-09T09:17:16;18.00;99.90
20370;DHT22;10344;47.592;9.600;2022-09-09T09:19:43;18.20;99.90
20370;DHT22;10344;47.592;9.600;2022-09-09T09:22:29;18.80;99.90
20370;DHT22;10344;47.592;9.600;2022-09-09T09:25:27;20.00;99.90
20370;DHT22;10344;47.592;9.600;2022-09-09T09:31:04;20.50;99.90
20370;DHT22;10344;47.592;9.600;2022-09-09T09:33:57;20.50;99.90
20370;DHT22;10344;47.592;9.600;2022-09-09T09:36:41;20.30;99.90
20370;DHT22;10344;47.592;9.600;2022-09-09T09:39:08;19.90;99.90
20370;DHT22;10344;47.592;9.600;2022-09-09T09:41:36;19.70;99.90
20370;DHT22;10344;47.592;9.600;2022-09-09T09:44:03;19.50;99.90
20370;DHT22;10344;47.592;9.600;2022-09-09T09:46:30;19.40;99.90
20370;DHT22;10344;47.592;9.600;2022-09-09T09:49:03;19.30;99.90
20370;DHT22;10344;47.592;9.600;2022-09-09T09:51:31;19.40;99.90
20370;DHT22;10344;47.592;9.600;2022-09-09T09:56:39;19.60;99.90
20370;DHT22;10344;47.592;9.600;2022-09-09T09:59:11;19.80;99.90
20370;DHT22;10344;47.592;9.600;2022-09-09T10:01:46;20.00;99.90
20370;DHT22;10344;47.592;9.600;2022-09-09T10:04:17;20.00;99.90
20370;DHT22;10344;47.592;9.600;2022-09-09T10:06:44;19.90;99.90
20370;DHT22;10344;47.592;9.600;2022-09-09T10:09:28;20.00;99.90
20370;DHT22;10344;47.592;9.600;2022-09-09T10:19:36;20.10;99.90
20370;DHT22;10344;47.592;9.600;2022-09-09T10:25:16;20.10;99.90
20370;DHT22;10344;47.592;9.600;2022-09-09T10:30:24;21.00;99.90
20370;DHT22;10344;47.592;9.600;2022-09-09T10:35:30;21.80;99.90
20370;DHT22;10344;47.592;9.600;2022-09-09T10:38:20;22.20;99.90
20370;DHT22;10344;47.592;9.600;2022-09-09T10:54:31;23.10;99.90
20370;DHT22;10344;47.592;9.600;2022-09-09T10:57:11;23.20;99.90
20370;DHT22;10344;47.592;9.600;2022-09-09T10:59:47;22.90;99.90
20370;DHT22;10344;47.592;9.600;2022-09-09T11:02:26;22.80;99.90
20370;DHT22;10344;47.592;9.600;2022-09-09T11:07:44;22.70;99.90
20370;DHT22;10344;47.592;9.600;2022-09-09T11:10:40;22.50;99.90
20370;DHT22;10344;47.592;9.600;2022-09-09T11:13:39;21.70;99.90
20370;DHT22;10344;47.592;9.600;2022-09-09T11:18:45;21.80;99.90
20370;DHT22;10344;47.592;9.600;2022-09-09T11:21:23;21.50;99.90
20370;DHT22;10344;47.592;9.600;2022-09-09T11:23:54;21.20;99.90
20370;DHT22;10344;47.592;9.600;2022-09-09T11:26:37;21.20;99.90
20370;DHT22;10344;47.592;9.600;2022-09-09T11:29:25;21.00;99.90
20370;DHT22;10344;47.592;9.600;2022-09-09T11:40:28;19.80;99.90
20370;DHT22;10344;47.592;9.600;2022-09-09T11:43:23;19.50;99.90
20370;DHT22;10344;47.592;9.600;2022-09-09T11:46:02;19.30;99.90
20370;DHT22;10344;47.592;9.600;2022-09-09T11:48:41;19.10;99.90
20370;DHT22;10344;47.592;9.600;2022-09-09T12:08:53;18.10;99.90
20370;DHT22;10344;47.592;9.600;2022-09-09T12:11:33;18.20;99.90
20370;DHT22;10344;47.592;9.600;2022-09-09T12:14:00;18.40;99.90
20370;DHT22;10344;47.592;9.600;2022-09-09T12:16:37;18.70;99.90
20370;DHT22;10344;47.592;9.600;2022-09-09T12:19:24;18.90;99.90
20370;DHT22;10344;47.592;9.600;2022-09-09T12:28:15;18.80;99.90
20370;DHT22;10344;47.592;9.600;2022-09-09T12:33:17;18.70;99.90
20370;DHT22;10344;47.592;9.600;2022-09-09T12:35:47;18.70;99.90
20370;DHT22;10344;47.592;9.600;2022-09-09T12:38:22;18.80;99.90
20370;DHT22;10344;47.592;9.600;2022-09-09T12:40:55;18.90;99.90
20370;DHT22;10344;47.592;9.600;2022-09-09T12:43:24;19.10;99.90
20370;DHT22;10344;47.592;9.600;2022-09-09T12:45:52;19.20;99.90
20370;DHT22;10344;47.592;9.600;2022-09-09T12:48:30;19.30;99.90
20370;DHT22;10344;47.592;9.600;2022-09-09T12:50:57;19.50;99.90
20370;DHT22;10344;47.592;9.600;2022-09-09T12:53:32;19.70;99.90
20370;DHT22;10344;47.592;9.600;2022-09-09T12:58:32;19.90;99.90
20370;DHT22;10344;47.592;9.600;2022-09-09T13:00:59;20.10;99.90
20370;DHT22;10344;47.592;9.600;2022-09-09T13:03:26;20.30;99.90
20370;DHT22;10344;47.592;9.600;2022-09-09T13:05:58;20.60;99.90
20370;DHT22;10344;47.592;9.600;2022-09-09T13:08:27;21.10;99.90
20370;DHT22;10344;47.592;9.600;2022-09-09T13:10:57;21.40;99.90
20370;DHT22;10344;47.592;9.600;2022-09-09T13:13:35;21.80;99.90
20370;DHT22;10344;47.592;9.600;2022-09-09T13:16:02;22.10;99.90
20370;DHT22;10344;47.592;9.600;2022-09-09T13:18:33;22.20;99.90
20370;DHT22;10344;47.592;9.600;2022-09-09T13:20:59;22.00;99.90
20370;DHT22;10344;47.592;9.600;2022-09-09T13:23:31;21.80;99.90
20370;DHT22;10344;47.592;9.600;2022-09-09T13:26:23;21.60;99.90
20370;DHT22;10344;47.592;9.600;2022-09-09T13:28:50;21.70;99.90
20370;DHT22;10344;47.592;9.600;2022-09-09T13:31:29;21.60;99.90
20370;DHT22;10344;47.592;9.600;2022-09-09T13:33:57;21.70;99.90
20370;DHT22;10344;47.592;9.600;2022-09-09T13:36:33;21.80;99.90
20370;DHT22;10344;47.592;9.600;2022-09-09T13:39:02;22.00;99.90
20370;DHT22;10344;47.592;9.600;2022-09-09T13:44:01;22.20;99.90
20370;DHT22;10344;47.592;9.600;2022-09-09T13:49:21;22.10;99.90
20370;DHT22;10344;47.592;9.600;2022-09-09T13:51:49;22.10;99.90
20370;DHT22;10344;47.592;9.600;2022-09-09T13:54:20;22.20;99.90
20370;DHT22;10344;47.592;9.600;2022-09-09T13:56:48;22.20;99.90
20370;DHT22;10344;47.592;9.600;2022-09-09T13:59:18;22.10;99.90
20370;DHT22;10344;47.592;9.600;2022-09-09T14:01:51;22.10;99.90
20370;DHT22;10344;47.592;9.600;2022-09-09T14:04:18;22.10;99.90
20370;DHT22;10344;47.592;9.600;2022-09-09T14:06:47;22.20;99.90
20370;DHT22;10344;47.592;9.600;2022-09-09T14:09:14;22.30;99.90
20370;DHT22;10344;47.592;9.600;2022-09-09T14:11:44;22.30;99.90
20370;DHT22;10344;47.592;9.600;2022-09-09T14:14:11;22.40;99.90
20370;DHT22;10344;47.592;9.600;2022-09-09T14:16:36;22.30;99.90
20370;DHT22;10344;47.592;9.600;2022-09-09T14:19:03;22.30;99.90
20370;DHT22;10344;47.592;9.600;2022-09-09T14:21:29;22.50;99.90
20370;DHT22;10344;47.592;9.600;2022-09-09T14:23:54;22.50;99.90
20370;DHT22;10344;47.592;9.600;2022-09-09T14:26:24;22.70;99.90
20370;DHT22;10344;47.592;9.600;2022-09-09T14:28:50;22.80;99.90
20370;DHT22;10344;47.592;9.600;2022-09-09T14:31:17;23.00;99.90
20370;DHT22;10344;47.592;9.600;2022-09-09T14:33:46;23.10;99.90
20370;DHT22;10344;47.592;9.600;2022-09-09T14:36:12;23.00;99.90
20370;DHT22;10344;47.592;9.600;2022-09-09T14:38:40;23.20;99.90
20370;DHT22;10344;47.592;9.600;2022-09-09T14:41:14;23.10;99.90
20370;DHT22;10344;47.592;9.600;2022-09-09T14:43:42;23.20;99.90
20370;DHT22;10344;47.592;9.600;2022-09-09T14:46:10;23.10;99.90
20370;DHT22;10344;47.592;9.600;2022-09-09T14:48:36;23.30;99.90
20370;DHT22;10344;47.592;9.600;2022-09-09T14:51:19;23.50;99.90
20370;DHT22;10344;47.592;9.600;2022-09-09T14:53:46;23.90;99.90
20370;DHT22;10344;47.592;9.600;2022-09-09T14:56:15;24.10;99.90
20370;DHT22;10344;47.592;9.600;2022-09-09T14:58:41;24.30;99.90
20370;DHT22;10344;47.592;9.600;2022-09-09T15:01:12;24.40;99.90
20370;DHT22;10344;47.592;9.600;2022-09-09T15:03:41;23.80;99.90
20370;DHT22;10344;47.592;9.600;2022-09-09T15:06:13;23.10;99.90
20370;DHT22;10344;47.592;9.600;2022-09-09T15:08:41;22.70;99.90
20370;DHT22;10344;47.592;9.600;2022-09-09T15:11:11;22.40;99.90
20370;DHT22;10344;47.592;9.600;2022-09-09T15:13:38;22.00;99.90
20370;DHT22;10344;47.592;9.600;2022-09-09T15:16:12;21.90;99.90
20370;DHT22;10344;47.592;9.600;2022-09-09T15:18:38;21.60;99.90
20370;DHT22;10344;47.592;9.600;2022-09-09T15:21:12;21.60;99.90
20370;DHT22;10344;47.592;9.600;2022-09-09T15:23:38;22.40;99.90
20370;DHT22;10344;47.592;9.600;2022-09-09T15:26:05;23.20;99.90
20370;DHT22;10344;47.592;9.600;2022-09-09T15:28:35;23.60;99.90
20370;DHT22;10344;47.592;9.600;2022-09-09T15:31:06;23.70;99.90
20370;DHT22;10344;47.592;9.600;2022-09-09T15:33:35;23.30;99.90
20370;DHT22;10344;47.592;9.600;2022-09-09T15:36:42;22.70;99.90
20370;DHT22;10344;47.592;9.600;2022-09-09T15:39:10;22.10;99.90
20370;DHT22;10344;47.592;9.600;2022-09-09T15:41:45;22.40;99.90
20370;DHT22;10344;47.592;9.600;2022-09-09T15:44:12;23.30;99.90
20370;DHT22;10344;47.592;9.600;2022-09-09T15:46:40;23.90;99.90
20370;DHT22;10344;47.592;9.600;2022-09-09T15:49:07;23.80;99.90
20370;DHT22;10344;47.592;9.600;2022-09-09T15:51:34;23.10;99.90
20370;DHT22;10344;47.592;9.600;2022-09-09T15:54:01;22.50;99.90
20370;DHT22;10344;47.592;9.600;2022-09-09T15:56:28;22.10;99.90
20370;DHT22;10344;47.592;9.600;2022-09-09T15:58:56;21.70;99.90
20370;DHT22;10344;47.592;9.600;2022-09-09T16:01:23;21.40;99.90
20370;DHT22;10344;47.592;9.600;2022-09-09T16:03:51;21.20;99.90
20370;DHT22;10344;47.592;9.600;2022-09-09T16:06:19;21.00;99.90
20370;DHT22;10344;47.592;9.600;2022-09-09T16:08:47;20.90;99.90
20370;DHT22;10344;47.592;9.600;2022-09-09T16:11:22;20.90;99.90
20370;DHT22;10344;47.592;9.600;2022-09-09T16:13:49;20.70;99.90
20370;DHT22;10344;47.592;9.600;2022-09-09T16:16:17;20.60;99.90
20370;DHT22;10344;47.592;9.600;2022-09-09T16:19:06;20.60;99.90
20370;DHT22;10344;47.592;9.600;2022-09-09T16:21:43;20.70;99.90
20370;DHT22;10344;47.592;9.600;2022-09-09T16:24:12;20.70;99.90
20370;DHT22;10344;47.592;9.600;2022-09-09T16:26:40;20.70;99.90
20370;DHT22;10344;47.592;9.600;2022-09-09T16:29:08;20.50;99.90
20370;DHT22;10344;47.592;9.600;2022-09-09T16:31:34;20.50;99.90
20370;DHT22;10344;47.592;9.600;2022-09-09T16:34:02;20.30;99.90
20370;DHT22;10344;47.592;9.600;2022-09-09T16:36:33;20.30;99.90
20370;DHT22;10344;47.592;9.600;2022-09-09T16:39:04;20.20;99.90
20370;DHT22;10344;47.592;9.600;2022-09-09T16:41:31;20.10;99.90
20370;DHT22;10344;47.592;9.600;2022-09-09T16:44:02;20.10;99.90
20370;DHT22;10344;47.592;9.600;2022-09-09T16:46:29;20.00;99.90
20370;DHT22;10344;47.592;9.600;2022-09-09T16:48:57;19.90;99.90
20370;DHT22;10344;47.592;9.600;2022-09-09T16:51:32;19.90;99.90
20370;DHT22;10344;47.592;9.600;2022-09-09T16:54:00;19.90;99.90
20370;DHT22;10344;47.592;9.600;2022-09-09T16:56:30;19.80;99.90
20370;DHT22;10344;47.592;9.600;2022-09-09T16:59:01;19.80;99.90
20370;DHT22;10344;47.592;9.600;2022-09-09T17:01:29;19.70;99.90
20370;DHT22;10344;47.592;9.600;2022-09-09T17:04:00;19.70;99.90
20370;DHT22;10344;47.592;9.600;2022-09-09T17:06:27;19.60;99.90
20370;DHT22;10344;47.592;9.600;2022-09-09T17:08:58;19.50;99.90
20370;DHT22;10344;47.592;9.600;2022-09-09T17:11:25;19.40;99.90
20370;DHT22;10344;47.592;9.600;2022-09-09T17:13:52;19.30;99.90
20370;DHT22;10344;47.592;9.600;2022-09-09T17:16:19;19.20;99.90
20370;DHT22;10344;47.592;9.600;2022-09-09T17:18:51;19.20;99.90
20370;DHT22;10344;47.592;9.600;2022-09-09T17:21:19;19.20;99.90
20370;DHT22;10344;47.592;9.600;2022-09-09T17:23:45;19.10;99.90
20370;DHT22;10344;47.592;9.600;2022-09-09T17:26:16;19.00;99.90
20370;DHT22;10344;47.592;9.600;2022-09-09T17:28:45;18.80;99.90
20370;DHT22;10344;47.592;9.600;2022-09-09T17:31:14;18.70;99.90
20370;DHT22;10344;47.592;9.600;2022-09-09T17:33:42;18.50;99.90
20370;DHT22;10344;47.592;9.600;2022-09-09T17:38:36;18.30;99.90
20370;DHT22;10344;47.592;9.600;2022-09-09T17:41:04;18.30;99.90
20370;DHT22;10344;47.592;9.600;2022-09-09T17:43:30;18.20;99.90
20370;DHT22;10344;47.592;9.600;2022-09-09T17:46:05;18.10;99.90
20370;DHT22;10344;47.592;9.600;2022-09-09T17:48:30;18.00;99.90
20370;DHT22;10344;47.592;9.600;2022-09-09T17:50:59;18.00;99.90
20370;DHT22;10344;47.592;9.600;2022-09-09T17:53:24;18.00;99.90
20370;DHT22;10344;47.592;9.600;2022-09-09T17:55:51;18.00;99.90
20370;DHT22;10344;47.592;9.600;2022-09-09T17:58:17;17.90;99.90
20370;DHT22;10344;47.592;9.600;2022-09-09T18:00:42;17.90;99.90
20370;DHT22;10344;47.592;9.600;2022-09-09T18:03:15;17.90;99.90
20370;DHT22;10344;47.592;9.600;2022-09-09T18:05:41;17.80;99.90
20370;DHT22;10344;47.592;9.600;2022-09-09T18:08:09;17.80;99.90
20370;DHT22;10344;47.592;9.600;2022-09-09T18:10:35;17.80;99.90
20370;DHT22;10344;47.592;9.600;2022-09-09T18:13:00;17.80;99.90
20370;DHT22;10344;47.592;9.600;2022-09-09T18:15:26;17.70;99.90
20370;DHT22;10344;47.592;9.600;2022-09-09T18:17:52;17.70;99.90
20370;DHT22;10344;47.592;9.600;2022-09-09T18:20:17;17.70;99.90
20370;DHT22;10344;47.592;9.600;2022-09-09T18:22:44;17.70;99.90
20370;DHT22;10344;47.592;9.600;2022-09-09T18:25:09;17.80;99.90
20370;DHT22;10344;47.592;9.600;2022-09-09T18:27:35;17.70;99.90
20370;DHT22;10344;47.592;9.600;2022-09-09T18:30:00;17.70;99.90